createdAt,value
2023-05-05T00:01:25.844Z,2.60
2023-05-05T00:03:52.550Z,2.83
2023-05-05T00:06:19.227Z,2.50
2023-05-05T00:08:45.949Z,2.33
2023-05-05T00:11:12.620Z,2.80
2023-05-05T00:13:40.571Z,2.72
2023-05-05T00:16:07.900Z,3.38
2023-05-05T00:18:34.611Z,3.65
2023-05-05T00:21:01.188Z,3.03
2023-05-05T00:23:27.875Z,3.38
2023-05-05T00:25:54.494Z,2.60
2023-05-05T00:28:21.122Z,2.92
2023-05-05T00:30:49.275Z,3.13
2023-05-05T00:33:16.043Z,2.90
2023-05-05T00:35:42.746Z,2.67
2023-05-05T00:38:09.527Z,2.50
2023-05-05T00:40:36.750Z,2.70
2023-05-05T00:43:03.593Z,3.20
2023-05-05T00:45:30.499Z,3.03
2023-05-05T00:47:59.717Z,2.90
2023-05-05T00:50:27.701Z,3.30
2023-05-05T00:52:56.462Z,3.05
2023-05-05T00:55:23.139Z,2.47
2023-05-05T00:57:49.874Z,2.40
2023-05-05T01:00:16.797Z,3.20
2023-05-05T01:02:44.409Z,3.10
2023-05-05T01:05:13.988Z,2.75
2023-05-05T01:07:52.553Z,2.80
2023-05-05T01:10:25.942Z,2.87
2023-05-05T01:13:02.248Z,3.08
2023-05-05T01:15:33.983Z,2.80
2023-05-05T01:18:08.249Z,2.80
2023-05-05T01:20:44.779Z,3.08
2023-05-05T01:23:21.579Z,3.03
2023-05-05T01:26:08.659Z,3.63
2023-05-05T01:28:54.270Z,3.22
2023-05-05T01:31:46.929Z,2.90
2023-05-05T01:34:16.557Z,2.47
2023-05-05T01:36:49.270Z,2.83
2023-05-05T01:39:17.668Z,2.83
2023-05-05T01:41:47.946Z,2.90
2023-05-05T01:44:16.083Z,3.40
2023-05-05T01:46:44.179Z,3.05
2023-05-05T01:49:12.309Z,3.33
2023-05-05T01:51:40.034Z,3.50
2023-05-05T01:54:08.616Z,3.30
2023-05-05T01:56:38.549Z,3.40
2023-05-05T01:59:05.937Z,3.47
2023-05-05T02:01:36.282Z,3.03
2023-05-05T02:04:06.815Z,3.17
2023-05-05T02:06:35.224Z,3.08
2023-05-05T02:09:03.197Z,2.90
2023-05-05T02:11:29.981Z,2.70
2023-05-05T02:13:57.328Z,2.93
2023-05-05T02:16:24.610Z,2.90
2023-05-05T02:18:52.080Z,3.35
2023-05-05T02:21:20.100Z,3.20
2023-05-05T02:23:47.313Z,3.00
2023-05-05T02:26:15.804Z,3.10
2023-05-05T02:28:57.092Z,3.53
2023-05-05T02:31:27.398Z,3.75
2023-05-05T02:33:56.532Z,3.17
2023-05-05T02:36:28.970Z,3.50
2023-05-05T02:38:58.163Z,3.20
2023-05-05T02:41:26.854Z,3.92
2023-05-05T02:43:55.185Z,4.28
2023-05-05T02:46:21.898Z,3.58
2023-05-05T02:48:48.568Z,4.13
2023-05-05T02:51:15.141Z,4.03
2023-05-05T02:53:43.265Z,3.72
2023-05-05T02:56:22.322Z,3.58
2023-05-05T02:58:53.596Z,3.58
2023-05-05T03:01:29.195Z,3.80
2023-05-05T03:04:04.688Z,3.87
2023-05-05T03:06:36.461Z,4.10
2023-05-05T03:09:09.533Z,3.30
2023-05-05T03:11:40.422Z,3.47
2023-05-05T03:14:11.455Z,3.97
2023-05-05T03:16:40.698Z,4.33
2023-05-05T03:19:11.091Z,4.22
2023-05-05T03:21:38.264Z,4.60
2023-05-05T03:24:13.648Z,4.43
2023-05-05T03:26:40.291Z,3.78
2023-05-05T03:29:06.935Z,3.93
2023-05-05T03:31:33.637Z,4.07
2023-05-05T03:34:00.228Z,4.10
2023-05-05T03:36:29.011Z,3.88
2023-05-05T03:38:56.204Z,3.72
2023-05-05T03:41:24.835Z,3.73
2023-05-05T03:43:51.578Z,3.58
2023-05-05T03:46:18.522Z,3.90
2023-05-05T03:48:45.257Z,4.05
2023-05-05T03:51:12.474Z,4.40
2023-05-05T03:53:39.117Z,4.00
2023-05-05T03:56:05.842Z,4.10
2023-05-05T03:58:33.807Z,4.35
2023-05-05T04:01:00.431Z,4.28
2023-05-05T04:03:27.119Z,4.35
2023-05-05T04:05:53.912Z,4.27
2023-05-05T04:08:20.693Z,3.53
2023-05-05T04:10:47.427Z,4.38
2023-05-05T04:13:14.096Z,5.40
2023-05-05T04:15:45.447Z,4.15
2023-05-05T04:18:12.138Z,3.90
2023-05-05T04:20:38.870Z,3.95
2023-05-05T04:23:05.448Z,3.72
2023-05-05T04:25:32.061Z,4.40
2023-05-05T04:27:58.729Z,3.80
2023-05-05T04:30:25.382Z,4.30
2023-05-05T04:32:53.433Z,3.83
2023-05-05T04:35:20.137Z,3.58
2023-05-05T04:37:46.722Z,4.00
2023-05-05T04:40:13.483Z,3.90
2023-05-05T04:42:40.120Z,4.40
2023-05-05T04:45:08.539Z,3.83
2023-05-05T04:47:37.378Z,3.55
2023-05-05T04:50:06.541Z,3.22
2023-05-05T04:52:33.376Z,4.13
2023-05-05T04:55:00.035Z,4.17
2023-05-05T04:57:26.731Z,4.22
2023-05-05T04:59:53.396Z,3.83
2023-05-05T05:02:20.130Z,4.03
2023-05-05T05:04:46.902Z,3.83
2023-05-05T05:07:14.909Z,3.90
2023-05-05T05:09:41.561Z,3.45
2023-05-05T05:12:08.349Z,3.92
2023-05-05T05:14:36.750Z,3.85
2023-05-05T05:17:03.344Z,3.83
2023-05-05T05:19:29.974Z,4.00
2023-05-05T05:21:56.558Z,3.70
2023-05-05T05:24:24.627Z,4.57
2023-05-05T05:26:51.253Z,4.13
2023-05-05T05:29:17.880Z,4.07
2023-05-05T05:31:44.712Z,4.43
2023-05-05T05:34:12.795Z,4.45
2023-05-05T05:36:39.643Z,4.82
2023-05-05T05:39:06.229Z,4.35
2023-05-05T05:41:34.217Z,4.45
2023-05-05T05:44:00.965Z,4.47
2023-05-05T05:46:27.682Z,4.80
2023-05-05T05:48:54.449Z,4.38
2023-05-05T05:51:21.190Z,4.20
2023-05-05T05:53:47.828Z,4.40
2023-05-05T05:56:14.533Z,5.00
2023-05-05T05:58:42.562Z,4.47
2023-05-05T06:01:09.249Z,4.55
2023-05-05T06:03:36.123Z,4.60
2023-05-05T06:06:02.977Z,4.72
2023-05-05T06:08:29.633Z,4.57
2023-05-05T06:10:56.325Z,4.22
2023-05-05T06:13:23.149Z,4.78
2023-05-05T06:15:51.236Z,4.90
2023-05-05T06:18:18.100Z,4.35
2023-05-05T06:20:44.858Z,4.00
2023-05-05T06:23:11.563Z,4.15
2023-05-05T06:25:38.939Z,4.68
2023-05-05T06:28:05.745Z,4.55
2023-05-05T06:30:32.473Z,3.95
2023-05-05T06:33:00.547Z,4.03
2023-05-05T06:35:27.223Z,3.80
2023-05-05T06:37:53.935Z,3.90
2023-05-05T06:40:20.538Z,4.30
2023-05-05T06:42:47.176Z,4.55
2023-05-05T06:45:13.732Z,3.77
2023-05-05T06:47:40.352Z,3.85
2023-05-05T06:50:09.396Z,4.53
2023-05-05T06:52:36.322Z,4.40
2023-05-05T06:55:03.056Z,4.07
2023-05-05T06:57:29.667Z,3.80
2023-05-05T06:59:56.272Z,4.28
2023-05-05T07:02:24.093Z,4.20
2023-05-05T07:04:52.680Z,4.20
2023-05-05T07:07:20.801Z,4.47
2023-05-05T07:09:47.474Z,4.50
2023-05-05T07:12:14.130Z,3.75
2023-05-05T07:14:40.750Z,4.28
2023-05-05T07:17:07.377Z,3.65
2023-05-05T07:19:33.971Z,3.85
2023-05-05T07:22:00.582Z,3.83
2023-05-05T07:24:28.557Z,4.00
2023-05-05T07:26:55.281Z,4.10
2023-05-05T07:29:21.904Z,3.75
2023-05-05T07:31:48.518Z,4.10
2023-05-05T07:34:15.185Z,4.47
2023-05-05T07:36:41.954Z,4.07
2023-05-05T07:39:08.546Z,4.60
2023-05-05T07:41:36.521Z,3.90
2023-05-05T07:44:03.131Z,4.40
2023-05-05T07:46:29.848Z,4.00
2023-05-05T07:48:56.482Z,4.45
2023-05-05T07:51:23.121Z,4.97
2023-05-05T07:53:49.784Z,4.03
2023-05-05T07:56:16.387Z,4.72
2023-05-05T07:58:44.479Z,4.37
2023-05-05T08:01:11.133Z,3.97
2023-05-05T08:03:37.970Z,4.13
2023-05-05T08:06:07.086Z,4.20
2023-05-05T08:08:33.678Z,4.07
2023-05-05T08:11:00.375Z,4.47
2023-05-05T08:13:27.824Z,4.13
2023-05-05T08:15:56.196Z,3.65
2023-05-05T08:18:22.821Z,3.95
2023-05-05T08:20:49.411Z,3.97
2023-05-05T08:23:16.049Z,3.80
2023-05-05T08:25:43.589Z,3.97
2023-05-05T08:28:10.229Z,4.05
2023-05-05T08:30:37.254Z,4.35
2023-05-05T08:33:05.289Z,4.03
2023-05-05T08:35:31.882Z,3.60
2023-05-05T08:37:59.232Z,4.05
2023-05-05T08:40:31.875Z,4.32
2023-05-05T08:42:59.362Z,4.57
2023-05-05T08:45:27.809Z,4.70
2023-05-05T08:47:56.996Z,4.57
2023-05-05T08:50:26.845Z,4.20
2023-05-05T08:52:58.736Z,4.32
2023-05-05T08:55:26.996Z,4.50
2023-05-05T08:57:56.368Z,5.03
2023-05-05T09:00:23.586Z,4.67
2023-05-05T09:02:50.828Z,4.53
2023-05-05T09:05:17.739Z,4.47
2023-05-05T09:07:46.390Z,4.55
2023-05-05T09:10:14.265Z,4.97
2023-05-05T09:12:41.227Z,4.00
2023-05-05T09:15:09.420Z,5.43
2023-05-05T09:17:36.244Z,4.97
2023-05-05T09:20:04.615Z,4.50
2023-05-05T09:22:36.256Z,5.80
2023-05-05T09:25:05.114Z,5.37
2023-05-05T09:27:36.179Z,5.82
2023-05-05T09:30:04.159Z,5.65
2023-05-05T09:32:42.539Z,5.60
2023-05-05T09:35:09.457Z,5.35
2023-05-05T09:37:36.250Z,6.40
2023-05-05T09:40:05.371Z,5.07
2023-05-05T09:42:31.934Z,5.20
2023-05-05T09:45:05.788Z,6.07
2023-05-05T09:47:35.777Z,5.35
2023-05-05T09:50:02.980Z,5.60
2023-05-05T09:52:30.361Z,5.90
2023-05-05T09:54:57.559Z,5.07
2023-05-05T09:57:32.027Z,5.15
2023-05-05T09:59:59.540Z,5.72
2023-05-05T10:02:33.869Z,5.53
2023-05-05T10:05:09.210Z,6.00
2023-05-05T10:07:36.791Z,7.07
2023-05-05T10:10:04.580Z,6.15
2023-05-05T10:12:34.849Z,6.10
2023-05-05T10:15:02.371Z,6.33
2023-05-05T10:17:31.495Z,6.07
2023-05-05T10:20:00.940Z,6.55
2023-05-05T10:22:29.396Z,6.28
2023-05-05T10:24:59.508Z,6.70
2023-05-05T10:27:28.865Z,5.60
2023-05-05T10:30:03.861Z,6.30
2023-05-05T10:32:56.403Z,6.78
2023-05-05T10:35:25.102Z,5.20
2023-05-05T10:37:52.254Z,5.03
2023-05-05T10:40:21.911Z,5.17
2023-05-05T10:42:48.635Z,5.82
2023-05-05T10:45:16.827Z,5.95
2023-05-05T10:47:43.840Z,6.03
2023-05-05T10:50:18.013Z,5.97
2023-05-05T10:52:54.994Z,6.70
2023-05-05T10:55:31.827Z,6.38
2023-05-05T10:57:58.453Z,5.43
2023-05-05T11:00:51.248Z,6.28
2023-05-05T11:03:22.093Z,6.35
2023-05-05T11:06:11.072Z,5.43
2023-05-05T11:08:39.593Z,5.80
2023-05-05T11:11:06.635Z,5.93
2023-05-05T11:13:33.365Z,5.05
2023-05-05T11:16:01.614Z,5.20
2023-05-05T11:18:30.159Z,5.13
2023-05-05T11:21:07.935Z,5.28
2023-05-05T11:23:34.863Z,4.78
2023-05-05T11:26:01.533Z,4.95
2023-05-05T11:28:29.311Z,4.47
2023-05-05T11:31:19.900Z,4.70
2023-05-05T11:33:46.804Z,4.53
2023-05-05T11:36:14.678Z,5.22
2023-05-05T11:39:07.878Z,4.65
2023-05-05T11:42:10.517Z,4.57
2023-05-05T11:44:37.864Z,4.60
2023-05-05T11:47:36.856Z,4.65
2023-05-05T11:50:17.982Z,4.57
2023-05-05T11:52:44.873Z,4.82
2023-05-05T11:55:11.597Z,4.78
2023-05-05T11:57:38.247Z,4.60
2023-05-05T12:00:07.078Z,4.60
2023-05-05T12:02:35.463Z,5.63
2023-05-05T12:05:02.939Z,5.38
2023-05-05T12:07:31.005Z,5.25
2023-05-05T12:09:57.910Z,5.27
2023-05-05T12:12:34.867Z,5.03
2023-05-05T12:15:01.777Z,6.80
2023-05-05T12:17:38.581Z,5.53
2023-05-05T12:20:06.160Z,5.10
2023-05-05T12:22:33.087Z,4.63
2023-05-05T12:25:03.156Z,4.72
2023-05-05T12:27:29.953Z,5.22
2023-05-05T12:30:10.189Z,5.10
2023-05-05T12:32:38.663Z,4.90
2023-05-05T12:35:07.262Z,5.90
2023-05-05T12:37:34.116Z,5.03
2023-05-05T12:40:00.748Z,4.95
2023-05-05T12:42:27.393Z,4.38
2023-05-05T12:44:53.992Z,3.83
2023-05-05T12:47:30.156Z,3.97
2023-05-05T12:49:59.588Z,3.28
2023-05-05T12:52:40.775Z,3.90
2023-05-05T12:55:08.558Z,3.65
2023-05-05T12:57:35.379Z,3.92
2023-05-05T13:00:13.473Z,3.13
2023-05-05T13:02:40.297Z,3.20
2023-05-05T13:05:09.613Z,2.97
2023-05-05T13:07:36.501Z,2.28
2023-05-05T13:10:07.931Z,2.40
2023-05-05T13:12:34.635Z,2.27
2023-05-05T13:15:01.236Z,2.28
2023-05-05T13:17:27.856Z,2.30
2023-05-05T13:19:54.432Z,2.08
2023-05-05T13:22:22.452Z,2.10
2023-05-05T13:24:52.361Z,1.60
2023-05-05T13:27:19.952Z,1.83
2023-05-05T13:29:46.624Z,1.45
2023-05-05T13:32:13.254Z,1.55
2023-05-05T13:34:39.927Z,1.52
2023-05-05T13:37:06.713Z,1.47
2023-05-05T13:39:34.694Z,1.95
2023-05-05T13:42:01.391Z,1.80
2023-05-05T13:44:27.985Z,1.42
2023-05-05T13:46:54.585Z,1.50
2023-05-05T13:49:21.233Z,1.40
2023-05-05T13:51:48.025Z,1.30
2023-05-05T13:54:14.706Z,1.88
2023-05-05T13:56:42.849Z,1.75
2023-05-05T13:59:09.479Z,2.20
2023-05-05T14:01:36.121Z,1.73
2023-05-05T14:04:05.097Z,1.77
2023-05-05T14:06:32.725Z,1.88
2023-05-05T14:08:59.347Z,1.80
2023-05-05T14:11:25.991Z,1.70
2023-05-05T14:13:53.958Z,1.90
2023-05-05T14:16:20.644Z,1.90
2023-05-05T14:18:47.336Z,2.15
2023-05-05T14:21:14.010Z,1.80
2023-05-05T14:23:40.633Z,1.98
2023-05-05T14:26:07.278Z,2.00
2023-05-05T14:28:33.854Z,2.00
2023-05-05T14:31:01.866Z,2.33
2023-05-05T14:33:28.530Z,2.13
2023-05-05T14:35:55.543Z,2.33
2023-05-05T14:38:22.288Z,2.03
2023-05-05T14:40:48.988Z,2.13
2023-05-05T14:43:15.604Z,2.22
2023-05-05T14:45:42.259Z,2.40
2023-05-05T14:48:10.569Z,2.35
2023-05-05T14:50:37.524Z,1.90
2023-05-05T14:53:04.233Z,2.25
2023-05-05T14:55:30.820Z,2.28
2023-05-05T14:57:57.419Z,2.10
2023-05-05T15:00:24.137Z,2.70
2023-05-05T15:02:50.774Z,2.70
2023-05-05T15:05:18.768Z,2.72
2023-05-05T15:07:45.492Z,2.97
2023-05-05T15:10:12.196Z,3.38
2023-05-05T15:12:38.871Z,3.40
2023-05-05T15:15:06.494Z,3.00
2023-05-05T15:17:33.276Z,2.70
2023-05-05T15:19:59.932Z,3.30
2023-05-05T15:22:28.075Z,3.20
2023-05-05T15:24:54.752Z,3.45
2023-05-05T15:27:21.411Z,3.53
2023-05-05T15:29:48.098Z,3.08
2023-05-05T15:32:14.746Z,2.95
2023-05-05T15:34:41.417Z,2.75
2023-05-05T15:37:08.070Z,3.20
2023-05-05T15:39:36.199Z,2.80
2023-05-05T15:42:03.237Z,3.08
2023-05-05T15:44:29.869Z,3.10
2023-05-05T15:46:56.837Z,3.30
2023-05-05T15:49:23.511Z,3.40
2023-05-05T15:51:50.121Z,3.20
2023-05-05T15:54:16.731Z,3.00
2023-05-05T15:56:44.690Z,3.70
2023-05-05T15:59:11.914Z,3.05
2023-05-05T16:01:38.742Z,3.60
2023-05-05T16:04:05.566Z,3.43
2023-05-05T16:06:32.213Z,4.13
2023-05-05T16:08:58.866Z,3.85
2023-05-05T16:11:25.555Z,3.22
2023-05-05T16:13:53.716Z,3.90
2023-05-05T16:16:20.724Z,3.43
2023-05-05T16:18:47.607Z,3.20
2023-05-05T16:21:14.258Z,3.85
2023-05-05T16:23:40.853Z,3.50
2023-05-05T16:26:07.426Z,3.67
2023-05-05T16:28:34.108Z,3.90
2023-05-05T16:31:02.270Z,3.60
2023-05-05T16:33:29.213Z,3.97
2023-05-05T16:35:56.152Z,3.13
2023-05-05T16:38:22.777Z,3.65
2023-05-05T16:40:49.635Z,3.70
2023-05-05T16:43:16.483Z,2.80
2023-05-05T16:45:43.123Z,3.17
2023-05-05T16:48:11.122Z,2.85
2023-05-05T16:50:37.715Z,3.08
2023-05-05T16:53:04.358Z,3.07
2023-05-05T16:55:31.016Z,2.67
2023-05-05T16:57:57.620Z,2.60
2023-05-05T17:00:24.246Z,2.95
2023-05-05T17:02:50.850Z,3.20
2023-05-05T17:05:19.003Z,2.80
2023-05-05T17:07:45.679Z,3.10
2023-05-05T17:10:12.282Z,3.30
2023-05-05T17:12:38.919Z,3.08
2023-05-05T17:15:07.087Z,3.05
2023-05-05T17:17:33.992Z,3.27
2023-05-05T17:20:00.728Z,3.20
2023-05-05T17:22:28.718Z,3.22
2023-05-05T17:24:55.364Z,3.28
2023-05-05T17:27:22.113Z,3.13
2023-05-05T17:29:48.792Z,2.87
2023-05-05T17:32:15.515Z,3.30
2023-05-05T17:34:42.177Z,3.28
2023-05-05T17:37:08.811Z,3.00
2023-05-05T17:39:36.827Z,3.67
2023-05-05T17:42:03.915Z,3.10
2023-05-05T17:44:30.527Z,3.42
2023-05-05T17:46:57.165Z,4.03
2023-05-05T17:49:23.732Z,4.13
2023-05-05T17:51:50.549Z,4.18
2023-05-05T17:54:17.206Z,9.17
2023-05-05T17:56:45.163Z,7.57
2023-05-05T17:59:11.742Z,8.93
2023-05-05T18:01:38.455Z,10.65
2023-05-05T18:04:05.305Z,7.68
2023-05-05T18:06:31.982Z,6.40
2023-05-05T18:08:58.566Z,4.10
2023-05-05T18:11:25.140Z,4.97
2023-05-05T18:13:53.303Z,5.15
2023-05-05T18:16:20.107Z,4.63
2023-05-05T18:18:46.844Z,4.27
2023-05-05T18:21:13.470Z,4.15
2023-05-05T18:23:40.076Z,3.97
2023-05-05T18:26:07.444Z,3.92
2023-05-05T18:28:34.104Z,4.18
2023-05-05T18:31:02.169Z,4.37
2023-05-05T18:33:28.865Z,4.60
2023-05-05T18:35:55.491Z,4.20
2023-05-05T18:38:22.323Z,4.43
2023-05-05T18:40:48.969Z,4.45
2023-05-05T18:43:15.614Z,4.17
2023-05-05T18:45:42.298Z,3.85
2023-05-05T18:48:10.445Z,4.20
2023-05-05T18:50:37.174Z,4.03
2023-05-05T18:53:04.085Z,4.35
2023-05-05T18:55:30.721Z,4.43
2023-05-05T18:57:57.317Z,4.60
2023-05-05T19:00:24.070Z,4.65
2023-05-05T19:02:50.697Z,4.80
2023-05-05T19:05:19.046Z,3.83
2023-05-05T19:07:45.814Z,2.43
2023-05-05T19:10:12.533Z,1.80
2023-05-05T19:12:39.247Z,1.40
2023-05-05T19:15:07.106Z,0.90
2023-05-05T19:17:34.210Z,1.02
2023-05-05T19:20:00.964Z,1.20
2023-05-05T19:22:29.008Z,0.90
2023-05-05T19:24:55.734Z,1.00
2023-05-05T19:27:22.449Z,1.25
2023-05-05T19:29:49.115Z,1.90
2023-05-05T19:32:15.822Z,1.60
2023-05-05T19:34:42.533Z,1.50
2023-05-05T19:37:09.174Z,1.45
2023-05-05T19:39:37.210Z,1.55
2023-05-05T19:42:04.178Z,1.45
2023-05-05T19:44:30.801Z,1.50
2023-05-05T19:46:57.462Z,1.60
2023-05-05T19:49:24.128Z,4.10
2023-05-05T19:51:50.772Z,2.05
2023-05-05T19:54:17.961Z,1.70
2023-05-05T19:56:45.939Z,1.70
2023-05-05T19:59:12.607Z,1.95
2023-05-05T20:01:39.383Z,1.65
2023-05-05T20:04:06.050Z,1.77
2023-05-05T20:06:32.905Z,1.75
2023-05-05T20:08:59.556Z,1.70
2023-05-05T20:11:26.532Z,1.80
2023-05-05T20:13:54.609Z,2.30
2023-05-05T20:16:21.486Z,2.40
2023-05-05T20:18:48.245Z,2.83
2023-05-05T20:21:15.274Z,2.43
2023-05-05T20:23:41.997Z,2.28
2023-05-05T20:26:08.608Z,2.25
2023-05-05T20:28:35.249Z,2.13
2023-05-05T20:31:03.220Z,2.10
2023-05-05T20:33:29.976Z,2.50
2023-05-05T20:35:56.741Z,2.50
2023-05-05T20:38:23.470Z,2.78
2023-05-05T20:40:50.205Z,2.90
2023-05-05T20:43:16.852Z,2.80
2023-05-05T20:45:43.536Z,2.90
2023-05-05T20:48:11.627Z,3.30
2023-05-05T20:50:38.648Z,3.33
2023-05-05T20:53:07.129Z,3.50
2023-05-05T20:55:33.775Z,3.00
2023-05-05T20:58:00.601Z,2.77
2023-05-05T21:00:27.221Z,2.70
2023-05-05T21:02:54.025Z,2.90
2023-05-05T21:05:22.280Z,2.78
2023-05-05T21:07:49.208Z,3.30
2023-05-05T21:10:15.844Z,3.80
2023-05-05T21:12:42.507Z,3.53
2023-05-05T21:15:10.692Z,3.58
2023-05-05T21:17:37.565Z,3.30
2023-05-05T21:20:04.912Z,2.78
2023-05-05T21:22:33.053Z,2.40
2023-05-05T21:25:12.733Z,3.00
2023-05-05T21:27:39.361Z,3.20
2023-05-05T21:30:10.039Z,3.50
2023-05-05T21:32:37.665Z,2.80
2023-05-05T21:35:05.742Z,2.73
2023-05-05T21:37:33.868Z,2.70
2023-05-05T21:40:00.487Z,2.72
2023-05-05T21:42:29.064Z,2.40
2023-05-05T21:44:55.776Z,3.08
2023-05-05T21:47:22.504Z,2.47
2023-05-05T21:49:49.285Z,3.35
2023-05-05T21:52:15.947Z,3.63
2023-05-05T21:54:43.949Z,3.35
2023-05-05T21:57:10.690Z,4.53
2023-05-05T21:59:37.390Z,4.60
2023-05-05T22:02:03.944Z,4.35
2023-05-05T22:04:30.623Z,4.90
2023-05-05T22:06:57.190Z,4.80
2023-05-05T22:09:23.843Z,4.20
2023-05-05T22:11:51.925Z,4.00
2023-05-05T22:14:18.595Z,4.55
2023-05-05T22:16:45.445Z,4.35
2023-05-05T22:19:12.093Z,4.32
2023-05-05T22:21:38.725Z,4.53
2023-05-05T22:24:06.449Z,4.43
2023-05-05T22:26:33.070Z,5.05
2023-05-05T22:29:01.108Z,4.80
2023-05-05T22:31:27.784Z,4.15
2023-05-05T22:33:54.401Z,4.90
2023-05-05T22:36:21.190Z,4.50
2023-05-05T22:38:47.748Z,4.65
2023-05-05T22:41:14.715Z,4.47
2023-05-05T22:43:41.358Z,4.65
2023-05-05T22:46:09.359Z,5.68
2023-05-05T22:48:36.033Z,5.50
2023-05-05T22:51:02.657Z,6.25
2023-05-05T22:53:29.331Z,5.63
2023-05-05T22:55:55.976Z,5.97
2023-05-05T22:58:22.990Z,5.88
2023-05-05T23:00:49.648Z,5.43
2023-05-05T23:03:18.013Z,5.70
2023-05-05T23:05:44.654Z,5.88
2023-05-05T23:08:11.265Z,5.72
2023-05-05T23:10:37.904Z,6.03
2023-05-05T23:13:04.668Z,5.73
2023-05-05T23:15:31.339Z,4.93
2023-05-05T23:17:58.053Z,5.25
2023-05-05T23:20:26.208Z,4.68
2023-05-05T23:22:52.877Z,5.32
2023-05-05T23:25:19.469Z,4.80
2023-05-05T23:27:46.108Z,3.95
2023-05-05T23:30:13.522Z,4.07
2023-05-05T23:32:40.239Z,4.57
2023-05-05T23:35:08.067Z,4.20
2023-05-05T23:37:36.423Z,4.13
2023-05-05T23:40:03.285Z,4.85
2023-05-05T23:42:29.850Z,4.70
2023-05-05T23:44:56.390Z,4.20
2023-05-05T23:47:23.016Z,3.60
2023-05-05T23:49:49.678Z,3.67
2023-05-05T23:52:16.304Z,4.18
2023-05-05T23:54:44.906Z,3.45
2023-05-05T23:57:11.486Z,3.60
2023-05-05T23:59:39.078Z,3.90
